sensor_id;sensor_type;location;lat;lon;timestamp;temperature;humidity
13794;DHT22;31160;49.500;7.772;2023-08-21T00:00:34;21.50;99.90
13794;DHT22;31160;49.500;7.772;2023-08-21T00:03:01;21.50;99.90
13794;DHT22;31160;49.500;7.772;2023-08-21T00:05:29;21.50;99.90
13794;DHT22;31160;49.500;7.772;2023-08-21T00:07:57;21.50;99.90
13794;DHT22;31160;49.500;7.772;2023-08-21T00:10:24;21.50;99.90
13794;DHT22;31160;49.500;7.772;2023-08-21T00:12:51;21.50;99.90
13794;DHT22;31160;49.500;7.772;2023-08-21T00:15:19;21.40;99.90
13794;DHT22;31160;49.500;7.772;2023-08-21T00:17:47;21.40;99.90
13794;DHT22;31160;49.500;7.772;2023-08-21T00:20:15;21.30;99.90
13794;DHT22;31160;49.500;7.772;2023-08-21T00:22:43;21.30;99.90
13794;DHT22;31160;49.500;7.772;2023-08-21T00:25:10;21.30;99.90
13794;DHT22;31160;49.500;7.772;2023-08-21T00:27:38;21.20;99.90
13794;DHT22;31160;49.500;7.772;2023-08-21T00:30:06;21.20;99.90
13794;DHT22;31160;49.500;7.772;2023-08-21T00:32:33;21.20;99.90
13794;DHT22;31160;49.500;7.772;2023-08-21T00:34:59;21.20;99.90
13794;DHT22;31160;49.500;7.772;2023-08-21T00:37:27;21.20;99.90
13794;DHT22;31160;49.500;7.772;2023-08-21T00:39:54;21.10;99.90
13794;DHT22;31160;49.500;7.772;2023-08-21T00:42:21;21.10;99.90
13794;DHT22;31160;49.500;7.772;2023-08-21T00:44:47;21.00;99.90
13794;DHT22;31160;49.500;7.772;2023-08-21T00:47:14;20.90;99.90
13794;DHT22;31160;49.500;7.772;2023-08-21T00:49:42;20.90;99.90
13794;DHT22;31160;49.500;7.772;2023-08-21T00:52:11;20.90;99.90
13794;DHT22;31160;49.500;7.772;2023-08-21T00:54:39;20.90;99.90
13794;DHT22;31160;49.500;7.772;2023-08-21T00:57:05;20.90;99.90
13794;DHT22;31160;49.500;7.772;2023-08-21T00:59:33;21.00;99.90
13794;DHT22;31160;49.500;7.772;2023-08-21T01:02:00;20.90;99.90
13794;DHT22;31160;49.500;7.772;2023-08-21T01:04:26;21.00;99.90
13794;DHT22;31160;49.500;7.772;2023-08-21T01:06:53;21.00;99.90
13794;DHT22;31160;49.500;7.772;2023-08-21T01:12:18;21.00;99.90
13794;DHT22;31160;49.500;7.772;2023-08-21T01:15:01;21.00;99.90
13794;DHT22;31160;49.500;7.772;2023-08-21T01:17:30;20.90;99.90
13794;DHT22;31160;49.500;7.772;2023-08-21T01:19:58;20.80;99.90
13794;DHT22;31160;49.500;7.772;2023-08-21T01:22:27;20.80;99.90
13794;DHT22;31160;49.500;7.772;2023-08-21T01:24:54;20.80;99.90
13794;DHT22;31160;49.500;7.772;2023-08-21T01:27:22;20.80;99.90
13794;DHT22;31160;49.500;7.772;2023-08-21T01:29:49;20.80;99.90
13794;DHT22;31160;49.500;7.772;2023-08-21T01:32:27;20.70;99.90
13794;DHT22;31160;49.500;7.772;2023-08-21T01:34:59;20.70;99.90
13794;DHT22;31160;49.500;7.772;2023-08-21T01:37:29;20.70;99.90
13794;DHT22;31160;49.500;7.772;2023-08-21T01:39:59;20.70;99.90
13794;DHT22;31160;49.500;7.772;2023-08-21T01:42:26;20.70;99.90
13794;DHT22;31160;49.500;7.772;2023-08-21T01:44:53;20.60;99.90
13794;DHT22;31160;49.500;7.772;2023-08-21T01:47:19;20.60;99.90
13794;DHT22;31160;49.500;7.772;2023-08-21T01:49:46;20.60;99.90
13794;DHT22;31160;49.500;7.772;2023-08-21T01:52:13;20.60;99.90
13794;DHT22;31160;49.500;7.772;2023-08-21T01:54:40;20.50;99.90
13794;DHT22;31160;49.500;7.772;2023-08-21T01:57:08;20.50;99.90
13794;DHT22;31160;49.500;7.772;2023-08-21T01:59:35;20.50;99.90
13794;DHT22;31160;49.500;7.772;2023-08-21T02:02:02;20.50;99.90
13794;DHT22;31160;49.500;7.772;2023-08-21T02:04:28;20.40;99.90
13794;DHT22;31160;49.500;7.772;2023-08-21T02:06:55;20.40;99.90
13794;DHT22;31160;49.500;7.772;2023-08-21T02:09:22;20.40;99.90
13794;DHT22;31160;49.500;7.772;2023-08-21T02:11:48;20.40;99.90
13794;DHT22;31160;49.500;7.772;2023-08-21T02:14:15;20.40;99.90
13794;DHT22;31160;49.500;7.772;2023-08-21T02:16:42;20.40;99.90
13794;DHT22;31160;49.500;7.772;2023-08-21T02:19:09;20.40;99.90
13794;DHT22;31160;49.500;7.772;2023-08-21T02:21:36;20.30;99.90
13794;DHT22;31160;49.500;7.772;2023-08-21T02:24:03;20.30;99.90
13794;DHT22;31160;49.500;7.772;2023-08-21T02:26:30;20.30;99.90
13794;DHT22;31160;49.500;7.772;2023-08-21T02:28:57;20.20;99.90
13794;DHT22;31160;49.500;7.772;2023-08-21T02:31:24;20.20;99.90
13794;DHT22;31160;49.500;7.772;2023-08-21T02:33:51;20.20;99.90
13794;DHT22;31160;49.500;7.772;2023-08-21T02:36:18;20.20;99.90
13794;DHT22;31160;49.500;7.772;2023-08-21T02:38:45;20.10;99.90
13794;DHT22;31160;49.500;7.772;2023-08-21T02:41:11;20.10;99.90
13794;DHT22;31160;49.500;7.772;2023-08-21T02:43:41;20.10;99.90
13794;DHT22;31160;49.500;7.772;2023-08-21T02:46:08;20.10;99.90
13794;DHT22;31160;49.500;7.772;2023-08-21T02:48:35;20.10;99.90
13794;DHT22;31160;49.500;7.772;2023-08-21T02:51:02;20.10;99.90
13794;DHT22;31160;49.500;7.772;2023-08-21T02:53:31;20.00;99.90
13794;DHT22;31160;49.500;7.772;2023-08-21T02:55:58;20.10;99.90
13794;DHT22;31160;49.500;7.772;2023-08-21T02:58:25;20.00;99.90
13794;DHT22;31160;49.500;7.772;2023-08-21T03:00:52;19.90;99.90
13794;DHT22;31160;49.500;7.772;2023-08-21T03:03:18;19.90;99.90
13794;DHT22;31160;49.500;7.772;2023-08-21T03:05:45;19.90;99.90
13794;DHT22;31160;49.500;7.772;2023-08-21T03:08:12;19.90;99.90
13794;DHT22;31160;49.500;7.772;2023-08-21T03:10:39;19.90;99.90
13794;DHT22;31160;49.500;7.772;2023-08-21T03:13:06;20.00;99.90
13794;DHT22;31160;49.500;7.772;2023-08-21T03:15:34;19.90;99.90
13794;DHT22;31160;49.500;7.772;2023-08-21T03:18:01;19.90;99.90
13794;DHT22;31160;49.500;7.772;2023-08-21T03:20:28;19.80;99.90
13794;DHT22;31160;49.500;7.772;2023-08-21T03:22:56;19.80;99.90
13794;DHT22;31160;49.500;7.772;2023-08-21T03:25:23;19.80;99.90
13794;DHT22;31160;49.500;7.772;2023-08-21T03:27:50;19.80;99.90
13794;DHT22;31160;49.500;7.772;2023-08-21T03:30:17;19.70;99.90
13794;DHT22;31160;49.500;7.772;2023-08-21T03:32:44;19.80;99.90
13794;DHT22;31160;49.500;7.772;2023-08-21T03:35:11;19.70;99.90
13794;DHT22;31160;49.500;7.772;2023-08-21T03:37:38;19.70;99.90
13794;DHT22;31160;49.500;7.772;2023-08-21T03:40:07;19.70;99.90
13794;DHT22;31160;49.500;7.772;2023-08-21T03:42:34;19.70;99.90
13794;DHT22;31160;49.500;7.772;2023-08-21T03:45:02;19.70;99.90
13794;DHT22;31160;49.500;7.772;2023-08-21T03:47:30;19.60;99.90
13794;DHT22;31160;49.500;7.772;2023-08-21T03:50:02;19.60;99.90
13794;DHT22;31160;49.500;7.772;2023-08-21T03:52:28;19.60;99.90
13794;DHT22;31160;49.500;7.772;2023-08-21T03:54:55;19.60;99.90
13794;DHT22;31160;49.500;7.772;2023-08-21T03:57:22;19.60;99.90
13794;DHT22;31160;49.500;7.772;2023-08-21T03:59:49;19.60;99.90
13794;DHT22;31160;49.500;7.772;2023-08-21T04:02:15;19.60;99.90
13794;DHT22;31160;49.500;7.772;2023-08-21T04:04:42;19.60;99.90
13794;DHT22;31160;49.500;7.772;2023-08-21T04:07:10;19.60;99.90
13794;DHT22;31160;49.500;7.772;2023-08-21T04:09:38;19.50;99.90
13794;DHT22;31160;49.500;7.772;2023-08-21T04:12:05;19.60;99.90
13794;DHT22;31160;49.500;7.772;2023-08-21T04:14:31;19.50;99.90
13794;DHT22;31160;49.500;7.772;2023-08-21T04:16:58;19.50;99.90
13794;DHT22;31160;49.500;7.772;2023-08-21T04:19:25;19.50;99.90
13794;DHT22;31160;49.500;7.772;2023-08-21T04:21:56;19.50;99.90
13794;DHT22;31160;49.500;7.772;2023-08-21T04:24:23;19.50;99.90
13794;DHT22;31160;49.500;7.772;2023-08-21T04:26:49;19.50;99.90
13794;DHT22;31160;49.500;7.772;2023-08-21T04:29:16;19.50;99.90
13794;DHT22;31160;49.500;7.772;2023-08-21T04:31:43;19.50;99.90
13794;DHT22;31160;49.500;7.772;2023-08-21T04:34:10;19.40;99.90
13794;DHT22;31160;49.500;7.772;2023-08-21T04:36:36;19.50;99.90
13794;DHT22;31160;49.500;7.772;2023-08-21T04:39:03;19.40;99.90
13794;DHT22;31160;49.500;7.772;2023-08-21T04:41:30;19.40;99.90
13794;DHT22;31160;49.500;7.772;2023-08-21T04:43:57;19.40;99.90
13794;DHT22;31160;49.500;7.772;2023-08-21T04:46:25;19.40;99.90
13794;DHT22;31160;49.500;7.772;2023-08-21T04:48:52;19.40;99.90
13794;DHT22;31160;49.500;7.772;2023-08-21T04:51:18;19.40;99.90
13794;DHT22;31160;49.500;7.772;2023-08-21T04:53:46;19.40;99.90
13794;DHT22;31160;49.500;7.772;2023-08-21T04:56:17;19.40;99.90
13794;DHT22;31160;49.500;7.772;2023-08-21T04:58:44;19.50;99.90
13794;DHT22;31160;49.500;7.772;2023-08-21T05:01:11;19.50;99.90
13794;DHT22;31160;49.500;7.772;2023-08-21T05:03:43;19.50;99.90
13794;DHT22;31160;49.500;7.772;2023-08-21T05:06:10;19.50;99.90
13794;DHT22;31160;49.500;7.772;2023-08-21T05:08:37;19.50;99.90
13794;DHT22;31160;49.500;7.772;2023-08-21T05:11:06;19.50;99.90
13794;DHT22;31160;49.500;7.772;2023-08-21T05:13:35;19.60;99.90
13794;DHT22;31160;49.500;7.772;2023-08-21T05:16:03;19.60;99.90
13794;DHT22;31160;49.500;7.772;2023-08-21T05:18:34;19.70;99.90
13794;DHT22;31160;49.500;7.772;2023-08-21T05:21:01;19.60;99.90
13794;DHT22;31160;49.500;7.772;2023-08-21T05:23:28;19.70;99.90
13794;DHT22;31160;49.500;7.772;2023-08-21T05:26:00;19.70;99.90
13794;DHT22;31160;49.500;7.772;2023-08-21T05:28:27;19.70;99.90
13794;DHT22;31160;49.500;7.772;2023-08-21T05:30:53;19.80;99.90
13794;DHT22;31160;49.500;7.772;2023-08-21T05:33:20;19.80;99.90
13794;DHT22;31160;49.500;7.772;2023-08-21T05:35:49;19.90;99.90
13794;DHT22;31160;49.500;7.772;2023-08-21T05:38:16;19.90;99.90
13794;DHT22;31160;49.500;7.772;2023-08-21T05:40:43;19.90;99.90
13794;DHT22;31160;49.500;7.772;2023-08-21T05:43:10;20.00;99.90
13794;DHT22;31160;49.500;7.772;2023-08-21T05:45:40;20.00;99.90
13794;DHT22;31160;49.500;7.772;2023-08-21T05:48:07;20.10;99.90
13794;DHT22;31160;49.500;7.772;2023-08-21T05:50:34;20.20;99.90
13794;DHT22;31160;49.500;7.772;2023-08-21T05:53:04;20.30;99.90
13794;DHT22;31160;49.500;7.772;2023-08-21T05:55:31;20.40;99.90
13794;DHT22;31160;49.500;7.772;2023-08-21T05:57:59;20.50;99.90
13794;DHT22;31160;49.500;7.772;2023-08-21T06:00:26;20.70;99.90
13794;DHT22;31160;49.500;7.772;2023-08-21T06:02:53;20.70;99.90
13794;DHT22;31160;49.500;7.772;2023-08-21T06:05:43;20.80;99.90
13794;DHT22;31160;49.500;7.772;2023-08-21T06:08:10;20.90;99.90
13794;DHT22;31160;49.500;7.772;2023-08-21T06:10:37;21.00;99.90
13794;DHT22;31160;49.500;7.772;2023-08-21T06:13:04;21.10;99.90
13794;DHT22;31160;49.500;7.772;2023-08-21T06:15:31;21.20;99.90
13794;DHT22;31160;49.500;7.772;2023-08-21T06:17:59;21.30;99.90
13794;DHT22;31160;49.500;7.772;2023-08-21T06:20:26;21.30;99.90
13794;DHT22;31160;49.500;7.772;2023-08-21T06:22:53;21.50;99.90
13794;DHT22;31160;49.500;7.772;2023-08-21T06:25:20;21.60;99.90
13794;DHT22;31160;49.500;7.772;2023-08-21T06:27:47;21.80;99.90
13794;DHT22;31160;49.500;7.772;2023-08-21T06:30:26;21.90;99.90
13794;DHT22;31160;49.500;7.772;2023-08-21T06:32:53;22.00;99.90
13794;DHT22;31160;49.500;7.772;2023-08-21T06:35:20;22.20;99.90
13794;DHT22;31160;49.500;7.772;2023-08-21T06:37:46;22.30;99.90
13794;DHT22;31160;49.500;7.772;2023-08-21T06:40:13;22.40;99.90
13794;DHT22;31160;49.500;7.772;2023-08-21T06:42:40;22.60;99.90
13794;DHT22;31160;49.500;7.772;2023-08-21T06:45:07;22.70;99.90
13794;DHT22;31160;49.500;7.772;2023-08-21T06:47:34;22.90;99.90
13794;DHT22;31160;49.500;7.772;2023-08-21T06:50:01;23.00;99.90
13794;DHT22;31160;49.500;7.772;2023-08-21T06:52:28;23.10;99.90
13794;DHT22;31160;49.500;7.772;2023-08-21T06:54:55;23.20;99.90
13794;DHT22;31160;49.500;7.772;2023-08-21T06:57:22;23.30;99.90
13794;DHT22;31160;49.500;7.772;2023-08-21T06:59:49;23.40;99.90
13794;DHT22;31160;49.500;7.772;2023-08-21T07:02:16;23.60;99.90
13794;DHT22;31160;49.500;7.772;2023-08-21T07:04:43;23.70;99.90
13794;DHT22;31160;49.500;7.772;2023-08-21T07:07:09;23.70;99.90
13794;DHT22;31160;49.500;7.772;2023-08-21T07:09:36;23.90;99.90
13794;DHT22;31160;49.500;7.772;2023-08-21T07:12:03;24.10;99.90
13794;DHT22;31160;49.500;7.772;2023-08-21T07:14:30;24.10;99.90
13794;DHT22;31160;49.500;7.772;2023-08-21T07:16:57;24.00;99.90
13794;DHT22;31160;49.500;7.772;2023-08-21T07:19:24;24.10;99.90
13794;DHT22;31160;49.500;7.772;2023-08-21T07:21:51;24.30;99.90
13794;DHT22;31160;49.500;7.772;2023-08-21T07:24:17;24.30;99.90
13794;DHT22;31160;49.500;7.772;2023-08-21T07:26:44;24.60;99.90
13794;DHT22;31160;49.500;7.772;2023-08-21T07:29:11;24.70;99.90
13794;DHT22;31160;49.500;7.772;2023-08-21T07:31:38;24.90;99.90
13794;DHT22;31160;49.500;7.772;2023-08-21T07:34:05;25.00;99.90
13794;DHT22;31160;49.500;7.772;2023-08-21T07:36:32;25.10;99.90
13794;DHT22;31160;49.500;7.772;2023-08-21T07:38:59;25.10;99.90
13794;DHT22;31160;49.500;7.772;2023-08-21T07:41:26;25.00;99.90
13794;DHT22;31160;49.500;7.772;2023-08-21T07:43:53;25.20;99.90
13794;DHT22;31160;49.500;7.772;2023-08-21T07:46:20;25.30;99.90
13794;DHT22;31160;49.500;7.772;2023-08-21T07:48:49;25.20;99.90
13794;DHT22;31160;49.500;7.772;2023-08-21T07:51:16;25.30;99.90
13794;DHT22;31160;49.500;7.772;2023-08-21T07:53:42;25.50;99.90
13794;DHT22;31160;49.500;7.772;2023-08-21T07:56:09;25.70;99.90
13794;DHT22;31160;49.500;7.772;2023-08-21T07:58:36;25.80;99.90
13794;DHT22;31160;49.500;7.772;2023-08-21T08:01:03;25.90;99.90
13794;DHT22;31160;49.500;7.772;2023-08-21T08:03:31;26.10;99.90
13794;DHT22;31160;49.500;7.772;2023-08-21T08:05:58;26.20;99.90
13794;DHT22;31160;49.500;7.772;2023-08-21T08:08:25;26.20;99.90
13794;DHT22;31160;49.500;7.772;2023-08-21T08:10:52;26.30;99.90
13794;DHT22;31160;49.500;7.772;2023-08-21T08:13:18;26.40;99.90
13794;DHT22;31160;49.500;7.772;2023-08-21T08:15:45;26.50;99.90
13794;DHT22;31160;49.500;7.772;2023-08-21T08:18:13;26.50;99.90
13794;DHT22;31160;49.500;7.772;2023-08-21T08:20:40;26.50;99.90
13794;DHT22;31160;49.500;7.772;2023-08-21T08:23:07;26.40;99.90
13794;DHT22;31160;49.500;7.772;2023-08-21T08:25:34;26.40;99.90
13794;DHT22;31160;49.500;7.772;2023-08-21T08:28:00;26.40;99.90
13794;DHT22;31160;49.500;7.772;2023-08-21T08:30:27;26.40;99.90
13794;DHT22;31160;49.500;7.772;2023-08-21T08:32:54;26.60;99.90
13794;DHT22;31160;49.500;7.772;2023-08-21T08:35:21;26.60;99.90
13794;DHT22;31160;49.500;7.772;2023-08-21T08:37:48;26.70;99.90
13794;DHT22;31160;49.500;7.772;2023-08-21T08:40:15;26.80;99.90
13794;DHT22;31160;49.500;7.772;2023-08-21T08:42:43;26.90;99.90
13794;DHT22;31160;49.500;7.772;2023-08-21T08:45:13;26.90;99.90
13794;DHT22;31160;49.500;7.772;2023-08-21T08:47:40;26.70;99.90
13794;DHT22;31160;49.500;7.772;2023-08-21T08:50:08;26.60;99.90
13794;DHT22;31160;49.500;7.772;2023-08-21T08:52:38;26.70;99.90
13794;DHT22;31160;49.500;7.772;2023-08-21T08:55:06;26.90;99.90
13794;DHT22;31160;49.500;7.772;2023-08-21T08:57:33;27.00;99.90
13794;DHT22;31160;49.500;7.772;2023-08-21T09:00:04;27.10;99.90
13794;DHT22;31160;49.500;7.772;2023-08-21T09:02:31;27.30;99.90
13794;DHT22;31160;49.500;7.772;2023-08-21T09:04:58;27.30;99.90
13794;DHT22;31160;49.500;7.772;2023-08-21T09:07:25;27.30;99.90
13794;DHT22;31160;49.500;7.772;2023-08-21T09:09:52;27.50;99.90
13794;DHT22;31160;49.500;7.772;2023-08-21T09:12:20;27.40;99.90
13794;DHT22;31160;49.500;7.772;2023-08-21T09:14:47;27.50;99.90
13794;DHT22;31160;49.500;7.772;2023-08-21T09:17:15;27.60;99.90
13794;DHT22;31160;49.500;7.772;2023-08-21T09:19:43;27.60;99.90
13794;DHT22;31160;49.500;7.772;2023-08-21T09:22:12;27.70;99.90
13794;DHT22;31160;49.500;7.772;2023-08-21T09:24:40;27.80;99.90
13794;DHT22;31160;49.500;7.772;2023-08-21T09:27:16;27.70;99.90
13794;DHT22;31160;49.500;7.772;2023-08-21T09:29:44;27.80;99.90
13794;DHT22;31160;49.500;7.772;2023-08-21T09:32:12;27.80;99.90
13794;DHT22;31160;49.500;7.772;2023-08-21T09:34:40;27.80;99.90
13794;DHT22;31160;49.500;7.772;2023-08-21T09:37:09;27.90;99.90
13794;DHT22;31160;49.500;7.772;2023-08-21T09:39:37;28.00;99.90
13794;DHT22;31160;49.500;7.772;2023-08-21T09:42:08;28.10;99.90
13794;DHT22;31160;49.500;7.772;2023-08-21T09:44:41;28.10;99.90
13794;DHT22;31160;49.500;7.772;2023-08-21T09:47:10;28.00;99.90
13794;DHT22;31160;49.500;7.772;2023-08-21T09:49:39;28.10;99.90
13794;DHT22;31160;49.500;7.772;2023-08-21T09:52:07;28.20;99.90
13794;DHT22;31160;49.500;7.772;2023-08-21T09:54:34;28.40;99.90
13794;DHT22;31160;49.500;7.772;2023-08-21T09:57:03;28.40;99.90
13794;DHT22;31160;49.500;7.772;2023-08-21T09:59:31;28.50;99.90
13794;DHT22;31160;49.500;7.772;2023-08-21T10:01:59;28.60;99.90
13794;DHT22;31160;49.500;7.772;2023-08-21T10:04:32;28.60;99.90
13794;DHT22;31160;49.500;7.772;2023-08-21T10:07:02;28.60;99.90
13794;DHT22;31160;49.500;7.772;2023-08-21T10:09:32;28.70;99.90
13794;DHT22;31160;49.500;7.772;2023-08-21T10:11:59;28.80;99.90
13794;DHT22;31160;49.500;7.772;2023-08-21T10:14:26;28.80;99.90
13794;DHT22;31160;49.500;7.772;2023-08-21T10:16:53;28.80;99.90
13794;DHT22;31160;49.500;7.772;2023-08-21T10:19:22;28.90;99.60
13794;DHT22;31160;49.500;7.772;2023-08-21T10:21:49;28.90;99.90
13794;DHT22;31160;49.500;7.772;2023-08-21T10:24:26;29.00;99.90
13794;DHT22;31160;49.500;7.772;2023-08-21T10:26:58;29.00;99.70
13794;DHT22;31160;49.500;7.772;2023-08-21T10:29:26;29.10;98.20
13794;DHT22;31160;49.500;7.772;2023-08-21T10:34:35;29.10;98.30
13794;DHT22;31160;49.500;7.772;2023-08-21T10:39:33;29.20;98.60
13794;DHT22;31160;49.500;7.772;2023-08-21T10:42:07;29.20;97.90
13794;DHT22;31160;49.500;7.772;2023-08-21T10:44:57;29.30;98.10
13794;DHT22;31160;49.500;7.772;2023-08-21T10:52:31;29.40;98.00
13794;DHT22;31160;49.500;7.772;2023-08-21T10:55:00;29.50;97.80
13794;DHT22;31160;49.500;7.772;2023-08-21T10:57:30;29.50;97.00
13794;DHT22;31160;49.500;7.772;2023-08-21T11:02:26;29.60;96.30
13794;DHT22;31160;49.500;7.772;2023-08-21T11:04:56;29.50;96.80
13794;DHT22;31160;49.500;7.772;2023-08-21T11:07:23;29.50;97.20
13794;DHT22;31160;49.500;7.772;2023-08-21T11:09:51;29.70;95.90
13794;DHT22;31160;49.500;7.772;2023-08-21T11:12:20;29.80;96.10
13794;DHT22;31160;49.500;7.772;2023-08-21T11:14:48;29.80;95.80
13794;DHT22;31160;49.500;7.772;2023-08-21T11:17:15;29.80;94.60
13794;DHT22;31160;49.500;7.772;2023-08-21T11:19:42;29.90;95.10
13794;DHT22;31160;49.500;7.772;2023-08-21T11:22:10;29.90;95.30
13794;DHT22;31160;49.500;7.772;2023-08-21T11:27:04;30.00;95.00
13794;DHT22;31160;49.500;7.772;2023-08-21T11:29:45;30.10;94.40
13794;DHT22;31160;49.500;7.772;2023-08-21T11:32:13;30.10;94.70
13794;DHT22;31160;49.500;7.772;2023-08-21T11:34:54;30.20;95.60
13794;DHT22;31160;49.500;7.772;2023-08-21T11:37:26;30.30;94.50
13794;DHT22;31160;49.500;7.772;2023-08-21T11:39:57;30.40;94.40
13794;DHT22;31160;49.500;7.772;2023-08-21T11:42:33;30.40;94.50
13794;DHT22;31160;49.500;7.772;2023-08-21T11:45:01;30.50;93.80
13794;DHT22;31160;49.500;7.772;2023-08-21T11:47:35;30.50;94.00
13794;DHT22;31160;49.500;7.772;2023-08-21T11:50:05;30.50;93.80
13794;DHT22;31160;49.500;7.772;2023-08-21T11:52:32;30.50;93.80
13794;DHT22;31160;49.500;7.772;2023-08-21T11:54:59;30.50;94.60
13794;DHT22;31160;49.500;7.772;2023-08-21T11:57:26;30.70;94.50
13794;DHT22;31160;49.500;7.772;2023-08-21T11:59:55;30.80;93.50
13794;DHT22;31160;49.500;7.772;2023-08-21T12:02:23;30.60;93.70
13794;DHT22;31160;49.500;7.772;2023-08-21T12:05:03;30.70;93.30
13794;DHT22;31160;49.500;7.772;2023-08-21T12:07:32;30.80;93.10
13794;DHT22;31160;49.500;7.772;2023-08-21T12:09:59;30.90;93.70
13794;DHT22;31160;49.500;7.772;2023-08-21T12:12:26;30.90;93.70
13794;DHT22;31160;49.500;7.772;2023-08-21T12:14:53;30.80;93.30
13794;DHT22;31160;49.500;7.772;2023-08-21T12:17:20;30.80;93.30
13794;DHT22;31160;49.500;7.772;2023-08-21T12:19:46;30.70;93.10
13794;DHT22;31160;49.500;7.772;2023-08-21T12:22:13;30.70;92.80
13794;DHT22;31160;49.500;7.772;2023-08-21T12:24:40;30.90;92.40
13794;DHT22;31160;49.500;7.772;2023-08-21T12:27:07;30.80;92.70
13794;DHT22;31160;49.500;7.772;2023-08-21T12:29:34;30.90;92.00
13794;DHT22;31160;49.500;7.772;2023-08-21T12:32:01;30.90;92.80
13794;DHT22;31160;49.500;7.772;2023-08-21T12:34:28;30.90;92.60
13794;DHT22;31160;49.500;7.772;2023-08-21T12:36:55;30.60;93.10
13794;DHT22;31160;49.500;7.772;2023-08-21T12:39:23;30.70;92.90
13794;DHT22;31160;49.500;7.772;2023-08-21T12:41:49;30.80;92.60
13794;DHT22;31160;49.500;7.772;2023-08-21T12:44:16;30.90;92.40
13794;DHT22;31160;49.500;7.772;2023-08-21T12:46:43;31.00;91.60
13794;DHT22;31160;49.500;7.772;2023-08-21T12:49:11;31.00;92.30
13794;DHT22;31160;49.500;7.772;2023-08-21T12:51:38;31.20;92.30
13794;DHT22;31160;49.500;7.772;2023-08-21T12:54:05;31.30;92.00
13794;DHT22;31160;49.500;7.772;2023-08-21T12:56:32;31.30;92.90
13794;DHT22;31160;49.500;7.772;2023-08-21T12:58:59;31.40;92.30
13794;DHT22;31160;49.500;7.772;2023-08-21T13:01:26;31.50;92.40
13794;DHT22;31160;49.500;7.772;2023-08-21T13:03:53;31.50;92.10
13794;DHT22;31160;49.500;7.772;2023-08-21T13:06:20;31.40;91.70
13794;DHT22;31160;49.500;7.772;2023-08-21T13:08:46;31.30;93.10
13794;DHT22;31160;49.500;7.772;2023-08-21T13:11:13;31.40;91.70
13794;DHT22;31160;49.500;7.772;2023-08-21T13:13:40;31.40;91.00
13794;DHT22;31160;49.500;7.772;2023-08-21T13:16:06;31.20;91.40
13794;DHT22;31160;49.500;7.772;2023-08-21T13:18:33;31.20;91.70
13794;DHT22;31160;49.500;7.772;2023-08-21T13:21:00;31.20;91.90
13794;DHT22;31160;49.500;7.772;2023-08-21T13:23:28;31.40;91.30
13794;DHT22;31160;49.500;7.772;2023-08-21T13:25:56;31.40;91.50
13794;DHT22;31160;49.500;7.772;2023-08-21T13:28:24;31.40;91.20
13794;DHT22;31160;49.500;7.772;2023-08-21T13:30:51;31.50;91.20
13794;DHT22;31160;49.500;7.772;2023-08-21T13:33:19;31.40;90.50
13794;DHT22;31160;49.500;7.772;2023-08-21T13:35:46;31.20;90.70
13794;DHT22;31160;49.500;7.772;2023-08-21T13:38:13;31.30;91.00
13794;DHT22;31160;49.500;7.772;2023-08-21T13:40:40;31.30;91.20
13794;DHT22;31160;49.500;7.772;2023-08-21T13:43:07;31.30;91.30
13794;DHT22;31160;49.500;7.772;2023-08-21T13:45:36;31.40;91.50
13794;DHT22;31160;49.500;7.772;2023-08-21T13:48:03;31.50;91.30
13794;DHT22;31160;49.500;7.772;2023-08-21T13:50:30;31.50;91.50
13794;DHT22;31160;49.500;7.772;2023-08-21T13:52:57;31.50;91.90
13794;DHT22;31160;49.500;7.772;2023-08-21T13:55:24;31.60;91.00
13794;DHT22;31160;49.500;7.772;2023-08-21T13:57:51;31.50;91.20
13794;DHT22;31160;49.500;7.772;2023-08-21T14:00:18;31.50;91.60
13794;DHT22;31160;49.500;7.772;2023-08-21T14:02:45;31.40;91.40
13794;DHT22;31160;49.500;7.772;2023-08-21T14:05:12;31.30;91.60
13794;DHT22;31160;49.500;7.772;2023-08-21T14:07:39;31.20;91.90
13794;DHT22;31160;49.500;7.772;2023-08-21T14:10:08;31.20;91.80
13794;DHT22;31160;49.500;7.772;2023-08-21T14:12:35;31.20;91.90
13794;DHT22;31160;49.500;7.772;2023-08-21T14:15:06;31.30;91.90
13794;DHT22;31160;49.500;7.772;2023-08-21T14:17:33;31.40;91.70
13794;DHT22;31160;49.500;7.772;2023-08-21T14:20:00;31.40;91.90
13794;DHT22;31160;49.500;7.772;2023-08-21T14:22:27;31.50;91.60
13794;DHT22;31160;49.500;7.772;2023-08-21T14:24:53;31.50;92.00
13794;DHT22;31160;49.500;7.772;2023-08-21T14:27:20;31.50;91.90
13794;DHT22;31160;49.500;7.772;2023-08-21T14:29:47;31.50;91.60
13794;DHT22;31160;49.500;7.772;2023-08-21T14:32:14;31.40;91.90
13794;DHT22;31160;49.500;7.772;2023-08-21T14:34:41;31.50;91.50
13794;DHT22;31160;49.500;7.772;2023-08-21T14:37:07;31.40;91.90
13794;DHT22;31160;49.500;7.772;2023-08-21T14:39:34;31.50;91.40
13794;DHT22;31160;49.500;7.772;2023-08-21T14:42:01;31.50;91.30
13794;DHT22;31160;49.500;7.772;2023-08-21T14:44:28;31.40;91.60
13794;DHT22;31160;49.500;7.772;2023-08-21T14:46:55;31.40;92.00
13794;DHT22;31160;49.500;7.772;2023-08-21T14:49:27;31.50;92.00
13794;DHT22;31160;49.500;7.772;2023-08-21T14:51:54;31.40;91.70
13794;DHT22;31160;49.500;7.772;2023-08-21T14:54:21;31.40;92.10
13794;DHT22;31160;49.500;7.772;2023-08-21T14:56:48;31.40;91.70
13794;DHT22;31160;49.500;7.772;2023-08-21T14:59:15;31.40;91.80
13794;DHT22;31160;49.500;7.772;2023-08-21T15:01:42;31.40;91.60
13794;DHT22;31160;49.500;7.772;2023-08-21T15:04:09;31.40;91.80
13794;DHT22;31160;49.500;7.772;2023-08-21T15:06:38;31.20;92.10
13794;DHT22;31160;49.500;7.772;2023-08-21T15:09:06;31.30;92.30
13794;DHT22;31160;49.500;7.772;2023-08-21T15:11:33;31.30;92.40
13794;DHT22;31160;49.500;7.772;2023-08-21T15:14:08;31.20;92.10
13794;DHT22;31160;49.500;7.772;2023-08-21T15:16:35;31.30;92.40
13794;DHT22;31160;49.500;7.772;2023-08-21T15:19:02;31.30;92.20
13794;DHT22;31160;49.500;7.772;2023-08-21T15:21:29;31.30;92.30
13794;DHT22;31160;49.500;7.772;2023-08-21T15:23:56;31.20;92.10
13794;DHT22;31160;49.500;7.772;2023-08-21T15:26:23;31.20;92.40
13794;DHT22;31160;49.500;7.772;2023-08-21T15:28:49;31.10;92.40
13794;DHT22;31160;49.500;7.772;2023-08-21T15:31:19;30.90;93.10
13794;DHT22;31160;49.500;7.772;2023-08-21T15:33:46;30.80;93.50
13794;DHT22;31160;49.500;7.772;2023-08-21T15:36:14;30.80;93.60
13794;DHT22;31160;49.500;7.772;2023-08-21T15:38:41;30.90;93.30
13794;DHT22;31160;49.500;7.772;2023-08-21T15:41:08;30.90;93.20
13794;DHT22;31160;49.500;7.772;2023-08-21T15:43:35;30.90;93.00
13794;DHT22;31160;49.500;7.772;2023-08-21T15:46:05;30.80;93.30
13794;DHT22;31160;49.500;7.772;2023-08-21T15:48:32;30.80;93.20
13794;DHT22;31160;49.500;7.772;2023-08-21T15:50:59;30.90;93.20